• Join FlightAware (Why Join?)
  • Login
  • US Flag 
01:00PM EST


 

Airport Tracker/Info


-or-


 

Live Flight TrackerFlight Track Log ✈ N913CS ✈ 03-Mar-2014 ✈ KCID - KBWI

Flight Track Log - Related Links

Times and Time Zones

All times are in EST time to prevent confusion due to time zone crossing. See the N913CS flight status page for this flight to view local times or setup timezone preferences in your user account.

Time Position Orientation Groundspeed Altitude Reporting Facility
EST Latitude Longitude Course Direction KTS MPH feet Rate Location/Type
07:41AM 41.8611 -91.7683 130° Southeast 172 198 3,800  Level Chicago Center
07:42AM 41.8222 -91.7069 130° Southeast 203 234 7,700 3,060 Climbing Chicago Center
07:43AM 41.8122 -91.6122 98° East 256 295 10,100 2,340 Climbing Chicago Center
07:44AM 41.7969 -91.4861 99° East 339 390 12,500 2,580 Climbing Chicago Center
07:45AM 41.7806 -91.3506 99° East 362 417 15,400 2,640 Climbing Chicago Center
07:46AM 41.7644 -91.2094 99° East 376 433 17,900 2,520 Climbing Chicago Center
07:47AM 41.7467 -91.0642 99° East 392 451 20,600 2,220 Climbing Chicago Center
07:48AM 41.7283 -90.9081 99° East 420 483 22,500 1,860 Climbing Chicago Center
07:49AM 41.7081 -90.7461 99° East 438 504 24,500 1,980 Climbing Chicago Center
07:50AM 41.6869 -90.5772 99° East 447 514 26,600 1,980 Climbing Chicago Center
07:51AM 41.6664 -90.4131 99° East 446 513 28,600 1,860 Climbing Chicago Center
07:52AM 41.6447 -90.2472 100° East 450 518 30,500 1,860 Climbing Chicago Center
07:53AM 41.6244 -90.0839 99° East 446 513 32,500 1,560 Climbing Chicago Center
07:54AM 41.6025 -89.9197 100° East 447 514 33,700 1,080 Climbing Chicago Center
07:55AM 41.5803 -89.7497 100° East 457 526 34,700 600 Climbing Chicago Center
07:56AM 41.5531 -89.5422 100° East 468 539 35,000 120 Climbing Chicago Center
07:57AM 41.5283 -89.3647 100° East 480 552 35,000  Level Chicago Center
07:58AM 41.5056 -89.1911 100° East 477 549 35,000 240 Level Chicago Center
07:59AM 41.4836 -89.0356 101° East 474 545 35,600 780 Climbing Chicago Center
08:01AM 41.4600 -88.8633 100° East 474 545 36,600 1,020 Climbing Chicago Center
08:02AM 41.4297 -88.6547 101° East 479 551 37,700 1,020 Climbing Chicago Center
08:03AM 41.4047 -88.4825 101° East 478 550 38,700 600 Climbing Chicago Center
08:04AM 41.3800 -88.3106 101° East 476 548 39,000 120 Climbing Chicago Center
08:05AM 41.3564 -88.1469 101° East 480 552 39,000  Level Chicago Center
08:06AM 41.3303 -87.9669 101° East 489 563 39,000  Level Chicago Center
08:07AM 41.2986 -87.7583 101° East 489 563 39,000  Level Chicago Center
08:08AM 41.2719 -87.5803 101° East 492 566 39,000  Level Chicago Center
08:09AM 41.2439 -87.4014 102° East 495 570 39,000  Level Chicago Center
08:10AM 41.2153 -87.2250 102° East 491 565 39,000  Level Chicago Center
08:11AM 41.1872 -87.0472 102° East 492 566 39,000  Level Chicago Center
08:12AM 41.1594 -86.8694 102° East 493 567 39,000  Level Chicago Center
08:13AM 41.1303 -86.6831 102° East 492 566 39,000  Level Chicago Center
08:14AM 41.1011 -86.5058 102° East 494 568 39,000  Level Chicago Center
08:15AM 41.0719 -86.3281 102° East 496 571 39,000  Level Chicago Center
08:16AM 41.0425 -86.1506 102° East 496 571 39,000  Level Chicago Center
08:17AM 41.0122 -85.9733 103° East 497 572 39,000  Level Chicago Center
08:18AM 40.9836 -85.7975 102° East 494 568 39,000  Level Chicago Center
08:19AM 40.9475 -85.5878 103° East 492 566 39,000  Level Chicago Center
08:20AM 40.9169 -85.4114 103° East 494 568 39,000  Level Chicago Center
08:21AM 40.8847 -85.2319 103° East 501 577 39,000  Level Chicago Center
08:22AM 40.8533 -85.0533 103° East 503 579 39,000  Level Chicago Center
08:23AM 40.8228 -84.8772 103° East 499 574 39,000  Level Chicago Center
08:24AM 40.7908 -84.7022 104° East 495 570 39,000  Level Chicago Center
08:25AM 40.7683 -84.5817 104° East 496 571 39,000  Level Indianapolis Center
08:26AM 40.7358 -84.4050 104° East 496 571 39,000  Level Indianapolis Center
08:27AM 40.7033 -84.2317 104° East 494 568 39,000  Level Indianapolis Center
08:28AM 40.6731 -84.0586 103° East 487 560 39,000  Level Indianapolis Center
08:29AM 40.6397 -83.8853 104° East 487 560 39,000  Level Indianapolis Center
08:30AM 40.6011 -83.6767 104° East 488 562 39,000  Level Indianapolis Center
08:31AM 40.5675 -83.5031 104° East 487 560 39,000  Level Indianapolis Center
08:32AM 40.5342 -83.3294 104° East 488 562 39,000  Level Indianapolis Center
08:33AM 40.5003 -83.1544 104° East 488 562 39,000  Level Indianapolis Center
08:34AM 40.4664 -82.9811 104° East 488 562 39,000  Level Indianapolis Center
08:35AM 40.4319 -82.8078 105° East 488 562 39,000  Level Indianapolis Center
08:37AM 40.3642 -82.4672 105° East 487 560 39,000  Level Cleveland Center
08:38AM 40.3283 -82.2894 105° East 487 560 39,000  Level Cleveland Center
08:39AM 40.2922 -82.1200 106° East 491 565 39,000  Level Cleveland Center
08:40AM 40.2569 -81.9458 105° East 492 566 39,000  Level Cleveland Center
08:41AM 40.2219 -81.7686 104° East 500 575 39,000  Level Cleveland Center
08:42AM 40.1847 -81.5833 105° East 501 577 39,000  Level Indianapolis Center
08:43AM 40.1486 -81.4039 105° East 505 581 39,000 -120 Level Indianapolis Center
08:44AM 40.1064 -81.1958 105° East 505 581 38,800 -780 Descending Indianapolis Center
08:45AM 40.0717 -81.0186 104° East 505 581 37,500 -1,380 Descending Indianapolis Center
08:46AM 40.0344 -80.8419 105° East 485 558 36,000 -1,200 Descending Cleveland Center
08:47AM 39.9997 -80.6703 105° East 491 565 35,000 -540 Descending Cleveland Center
08:48AM 39.9656 -80.5039 105° East 484 557 35,000 -300 Level Cleveland Center
08:49AM 39.9300 -80.3375 106° East 484 557 34,500 -1,080 Descending Cleveland Center
08:50AM 39.8953 -80.1744 105° East 478 550 32,800 -1,860 Descending Cleveland Center
08:51AM 39.8586 -80.0067 106° East 484 557 30,800 -2,220 Descending Cleveland Center
08:52AM 39.8142 -79.7953 105° East 506 582 28,300 -1,920 Descending Cleveland Center
08:53AM 39.7758 -79.6206 106° East 507 583 26,900 -1,380 Descending Cleveland Center
08:54AM 39.7381 -79.4464 106° East 506 582 25,500 -1,080 Descending Cleveland Center
08:55AM 39.7089 -79.2978 104° East 501 577 25,000 -300 Descending Washington Center
08:56AM 39.6719 -79.1339 106° East 488 562 25,000 -840 Level Washington Center
08:57AM 39.6392 -78.9733 105° East 476 548 23,400 -2,340 Descending Washington Center
08:58AM 39.5997 -78.8181 108° East 464 534 20,300 -2,580 Descending Washington Center
08:59AM 39.5739 -78.6931 105° East 459 528 18,200 -2,280 Descending Washington Center
09:00AM 39.5364 -78.5219 106° East 432 497 15,900 -1,680 Descending Washington Center
09:01AM 39.5064 -78.3833 106° East 412 474 15,000 -480 Descending Washington Center
09:02AM 39.4742 -78.2450 107° East 405 466 15,000  Level Washington Center
09:03AM 39.4439 -78.1017 105° East 405 466 15,000  Level Washington Center
09:04AM 39.4133 -77.9581 105° East 405 466 15,000 -360 Level Washington Center
09:05AM 39.3844 -77.8364 107° East 400 460 14,300 -1,560 Descending Washington Center
09:06AM 39.3575 -77.7039 105° East 400 460 11,900 -2,520 Descending Washington Center
09:07AM 39.3344 -77.5881 104° East 367 422 9,400 -2,400 Descending Washington Center
09:08AM 39.3114 -77.4828 106° East 329 379 7,200 -1,920 Descending Washington Center
09:09AM 39.2878 -77.3828 107° East 309 356 5,700 -1,440 Descending Washington Center
09:10AM 39.2667 -77.2667 103° East 253 291 4,100 -1,200 Descending Potomac TRACON
09:11AM 39.2500 -77.1667 102° East 253 291 3,100 -600 Descending Potomac TRACON
09:12AM 39.2333 -77.1000 108° East 227 261 3,000 -60 Descending Potomac TRACON
09:13AM 39.2167 -77.0167 104° East 198 228 3,000  Level Potomac TRACON
09:14AM 39.2000 -76.9500 108° East 185 213 3,000  Level Potomac TRACON
09:15AM 39.1833 -76.9000 113° Southeast 175 201 3,000 -180 Level Potomac TRACON
09:16AM 39.1833 -76.8333 90° East 169 194 2,700 -660 Descending Potomac TRACON
09:17AM 39.1833 -76.7833 90° East 149 171 1,700 -960 Descending Potomac TRACON
09:18AM 39.1833 -76.7167 90° East 145 167 800 -900 Descending Potomac TRACON
09:20AM 39.1667 -76.6667 150° Southeast  Level FlightAware Approximate
09:27AM 39.1754 -76.6683 150° Southeast  Level Estimated
09:28AM 39.1754 -76.6683 150° Southeast  Level Estimated